sensor_id;sensor_type;location;lat;lon;timestamp;pressure;altitude;pressure_sealevel;temperature;humidity
60307;BME280;46155;52.364;6.580;2023-02-12T04:01:26;103478.59;;;6.35;100.00
60307;BME280;46155;52.364;6.580;2023-02-12T04:03:51;103492.41;;;6.34;100.00
60307;BME280;46155;52.364;6.580;2023-02-12T04:06:25;103493.69;;;6.30;100.00
60307;BME280;46155;52.364;6.580;2023-02-12T04:08:52;103501.72;;;6.25;100.00
60307;BME280;46155;52.364;6.580;2023-02-12T04:11:51;103499.84;;;6.16;100.00
60307;BME280;46155;52.364;6.580;2023-02-12T04:14:34;103506.75;;;6.01;100.00
60307;BME280;46155;52.364;6.580;2023-02-12T04:17:08;103515.13;;;5.99;100.00
60307;BME280;46155;52.364;6.580;2023-02-12T04:19:48;103510.03;;;5.93;100.00
60307;BME280;46155;52.364;6.580;2023-02-12T04:22:33;103513.19;;;5.83;100.00
60307;BME280;46155;52.364;6.580;2023-02-12T04:25:17;103512.81;;;5.73;100.00
60307;BME280;46155;52.364;6.580;2023-02-12T04:27:57;103523.78;;;5.71;100.00
60307;BME280;46155;52.364;6.580;2023-02-12T04:30:31;103523.78;;;5.71;100.00
60307;BME280;46155;52.364;6.580;2023-02-12T04:33:04;103524.69;;;5.64;100.00
60307;BME280;46155;52.364;6.580;2023-02-12T04:35:39;103539.59;;;5.65;100.00
60307;BME280;46155;52.364;6.580;2023-02-12T04:40:33;103534.16;;;5.56;100.00
60307;BME280;46155;52.364;6.580;2023-02-12T04:42:59;103537.91;;;5.65;100.00
60307;BME280;46155;52.364;6.580;2023-02-12T04:45:27;103537.34;;;5.68;100.00
60307;BME280;46155;52.364;6.580;2023-02-12T04:47:53;103539.03;;;5.67;100.00
60307;BME280;46155;52.364;6.580;2023-02-12T04:50:19;103542.59;;;5.75;100.00
60307;BME280;46155;52.364;6.580;2023-02-12T04:52:44;103531.59;;;5.71;100.00
60307;BME280;46155;52.364;6.580;2023-02-12T04:55:10;103542.94;;;5.71;100.00
60307;BME280;46155;52.364;6.580;2023-02-12T04:57:35;103540.91;;;5.68;100.00
60307;BME280;46155;52.364;6.580;2023-02-12T05:00:01;103545.75;;;5.73;100.00
60307;BME280;46155;52.364;6.580;2023-02-12T05:02:26;103545.00;;;5.74;100.00
60307;BME280;46155;52.364;6.580;2023-02-12T05:04:51;103538.13;;;5.74;100.00
60307;BME280;46155;52.364;6.580;2023-02-12T05:07:17;103546.34;;;5.77;100.00
60307;BME280;46155;52.364;6.580;2023-02-12T05:09:42;103540.75;;;5.81;100.00
60307;BME280;46155;52.364;6.580;2023-02-12T05:12:08;103546.34;;;5.84;100.00
60307;BME280;46155;52.364;6.580;2023-02-12T05:14:33;103543.38;;;5.89;100.00
60307;BME280;46155;52.364;6.580;2023-02-12T05:16:58;103537.41;;;5.90;100.00
60307;BME280;46155;52.364;6.580;2023-02-12T05:19:24;103533.16;;;5.90;100.00
60307;BME280;46155;52.364;6.580;2023-02-12T05:21:51;103530.72;;;5.92;100.00
60307;BME280;46155;52.364;6.580;2023-02-12T05:24:16;103535.56;;;5.89;100.00
60307;BME280;46155;52.364;6.580;2023-02-12T05:26:42;103522.69;;;5.83;100.00
60307;BME280;46155;52.364;6.580;2023-02-12T05:29:07;103541.88;;;5.91;100.00
60307;BME280;46155;52.364;6.580;2023-02-12T05:31:32;103543.56;;;5.90;100.00
60307;BME280;46155;52.364;6.580;2023-02-12T05:33:58;103545.81;;;5.94;100.00
60307;BME280;46155;52.364;6.580;2023-02-12T05:36:24;103539.66;;;5.94;100.00
60307;BME280;46155;52.364;6.580;2023-02-12T05:38:52;103559.25;;;5.97;100.00
60307;BME280;46155;52.364;6.580;2023-02-12T05:41:21;103547.16;;;5.98;100.00
60307;BME280;46155;52.364;6.580;2023-02-12T05:43:48;103550.47;;;5.97;100.00
60307;BME280;46155;52.364;6.580;2023-02-12T05:46:14;103552.13;;;5.96;100.00
60307;BME280;46155;52.364;6.580;2023-02-12T05:48:39;103550.72;;;5.98;100.00
60307;BME280;46155;52.364;6.580;2023-02-12T05:51:08;103547.31;;;5.99;100.00
60307;BME280;46155;52.364;6.580;2023-02-12T05:53:35;103551.63;;;5.99;100.00
60307;BME280;46155;52.364;6.580;2023-02-12T05:56:08;103552.53;;;5.99;100.00
60307;BME280;46155;52.364;6.580;2023-02-12T05:58:33;103547.31;;;5.99;100.00
60307;BME280;46155;52.364;6.580;2023-02-12T06:00:59;103550.91;;;6.00;100.00
60307;BME280;46155;52.364;6.580;2023-02-12T06:03:24;103554.22;;;5.99;100.00
60307;BME280;46155;52.364;6.580;2023-02-12T06:05:50;103557.56;;;5.98;100.00
60307;BME280;46155;52.364;6.580;2023-02-12T06:08:15;103558.72;;;6.00;100.00
60307;BME280;46155;52.364;6.580;2023-02-12T06:10:41;103570.44;;;6.03;100.00
60307;BME280;46155;52.364;6.580;2023-02-12T06:13:06;103556.66;;;6.05;100.00
60307;BME280;46155;52.364;6.580;2023-02-12T06:15:31;103561.34;;;6.07;100.00
60307;BME280;46155;52.364;6.580;2023-02-12T06:17:57;103563.75;;;6.06;100.00
60307;BME280;46155;52.364;6.580;2023-02-12T06:20:22;103563.00;;;6.07;100.00
60307;BME280;46155;52.364;6.580;2023-02-12T06:22:47;103560.78;;;6.10;100.00
60307;BME280;46155;52.364;6.580;2023-02-12T06:25:13;103554.63;;;6.09;100.00
60307;BME280;46155;52.364;6.580;2023-02-12T06:27:38;103553.88;;;6.10;100.00
60307;BME280;46155;52.364;6.580;2023-02-12T06:30:04;103553.16;;;6.11;100.00
60307;BME280;46155;52.364;6.580;2023-02-12T06:32:29;103559.28;;;6.12;100.00
60307;BME280;46155;52.364;6.580;2023-02-12T06:34:55;103560.97;;;6.11;100.00
60307;BME280;46155;52.364;6.580;2023-02-12T06:37:20;103563.56;;;6.11;100.00
60307;BME280;46155;52.364;6.580;2023-02-12T06:39:45;103564.31;;;6.10;100.00
60307;BME280;46155;52.364;6.580;2023-02-12T06:42:11;103558.19;;;6.10;100.00
60307;BME280;46155;52.364;6.580;2023-02-12T06:44:36;103560.78;;;6.10;100.00
60307;BME280;46155;52.364;6.580;2023-02-12T06:47:01;103569.34;;;6.09;100.00
60307;BME280;46155;52.364;6.580;2023-02-12T06:49:27;103561.16;;;6.06;100.00
60307;BME280;46155;52.364;6.580;2023-02-12T06:51:52;103560.19;;;6.05;100.00
60307;BME280;46155;52.364;6.580;2023-02-12T06:54:17;103561.88;;;6.05;100.00
60307;BME280;46155;52.364;6.580;2023-02-12T06:56:43;103578.44;;;6.05;100.00
60307;BME280;46155;52.364;6.580;2023-02-12T06:59:12;103572.31;;;6.05;100.00
60307;BME280;46155;52.364;6.580;2023-02-12T07:01:39;103581.25;;;6.07;100.00
60307;BME280;46155;52.364;6.580;2023-02-12T07:04:04;103578.06;;;6.02;100.00
60307;BME280;46155;52.364;6.580;2023-02-12T07:06:33;103577.53;;;6.05;100.00
60307;BME280;46155;52.364;6.580;2023-02-12T07:08:58;103579.78;;;6.09;100.00
60307;BME280;46155;52.364;6.580;2023-02-12T07:11:30;103582.56;;;6.10;100.00
60307;BME280;46155;52.364;6.580;2023-02-12T07:13:55;103590.56;;;6.12;100.00
60307;BME280;46155;52.364;6.580;2023-02-12T07:16:22;103581.47;;;6.15;100.00
60307;BME280;46155;52.364;6.580;2023-02-12T07:18:47;103585.56;;;6.13;100.00
60307;BME280;46155;52.364;6.580;2023-02-12T07:21:14;103589.47;;;6.17;100.00
60307;BME280;46155;52.364;6.580;2023-02-12T07:23:41;103587.97;;;6.19;100.00
60307;BME280;46155;52.364;6.580;2023-02-12T07:26:09;103594.53;;;6.23;100.00
60307;BME280;46155;52.364;6.580;2023-02-12T07:28:35;103603.44;;;6.25;100.00
60307;BME280;46155;52.364;6.580;2023-02-12T07:31:15;103598.97;;;6.24;100.00
60307;BME280;46155;52.364;6.580;2023-02-12T07:33:40;103604.00;;;6.22;100.00
60307;BME280;46155;52.364;6.580;2023-02-12T07:36:09;103610.91;;;6.29;100.00
60307;BME280;46155;52.364;6.580;2023-02-12T07:38:35;103607.56;;;6.30;100.00
60307;BME280;46155;52.364;6.580;2023-02-12T07:41:31;103620.06;;;6.32;100.00
60307;BME280;46155;52.364;6.580;2023-02-12T07:43:59;103620.06;;;6.32;100.00
60307;BME280;46155;52.364;6.580;2023-02-12T07:46:28;103611.28;;;6.32;100.00
60307;BME280;46155;52.364;6.580;2023-02-12T07:48:55;103631.25;;;6.38;100.00
60307;BME280;46155;52.364;6.580;2023-02-12T07:51:20;103632.16;;;6.39;100.00
60307;BME280;46155;52.364;6.580;2023-02-12T07:53:47;103630.69;;;6.41;100.00
60307;BME280;46155;52.364;6.580;2023-02-12T07:56:21;103640.41;;;6.42;100.00
60307;BME280;46155;52.364;6.580;2023-02-12T07:58:48;103635.91;;;6.41;100.00
60307;BME280;46155;52.364;6.580;2023-02-12T08:01:17;103633.69;;;6.44;100.00
60307;BME280;46155;52.364;6.580;2023-02-12T08:03:42;103639.28;;;6.47;100.00
60307;BME280;46155;52.364;6.580;2023-02-12T08:06:16;103648.06;;;6.48;100.00
60307;BME280;46155;52.364;6.580;2023-02-12T08:08:42;103646.00;;;6.45;100.00
60307;BME280;46155;52.364;6.580;2023-02-12T08:11:09;103654.19;;;6.48;100.00
60307;BME280;46155;52.364;6.580;2023-02-12T08:13:36;103650.28;;;6.52;100.00
60307;BME280;46155;52.364;6.580;2023-02-12T08:16:04;103648.44;;;6.51;100.00
60307;BME280;46155;52.364;6.580;2023-02-12T08:18:31;103655.72;;;6.53;100.00
60307;BME280;46155;52.364;6.580;2023-02-12T08:21:18;103649.72;;;6.54;100.00
60307;BME280;46155;52.364;6.580;2023-02-12T08:23:44;103652.31;;;6.54;100.00
60307;BME280;46155;52.364;6.580;2023-02-12T08:26:14;103657.00;;;6.57;100.00
60307;BME280;46155;52.364;6.580;2023-02-12T08:28:42;103663.53;;;6.61;100.00
60307;BME280;46155;52.364;6.580;2023-02-12T08:31:22;103665.00;;;6.66;100.00
60307;BME280;46155;52.364;6.580;2023-02-12T08:33:49;103664.28;;;6.67;100.00
60307;BME280;46155;52.364;6.580;2023-02-12T08:36:20;103670.41;;;6.67;100.00
60307;BME280;46155;52.364;6.580;2023-02-12T08:38:46;103675.09;;;6.70;100.00
60307;BME280;46155;52.364;6.580;2023-02-12T08:41:16;103676.97;;;6.71;100.00
60307;BME280;46155;52.364;6.580;2023-02-12T08:43:42;103675.47;;;6.73;100.00
60307;BME280;46155;52.364;6.580;2023-02-12T08:46:11;103684.44;;;6.75;100.00
60307;BME280;46155;52.364;6.580;2023-02-12T08:48:38;103677.72;;;6.77;100.00
60307;BME280;46155;52.364;6.580;2023-02-12T08:51:18;103681.47;;;6.79;100.00
60307;BME280;46155;52.364;6.580;2023-02-12T08:53:45;103679.75;;;6.80;100.00
60307;BME280;46155;52.364;6.580;2023-02-12T08:56:14;103686.09;;;6.82;100.00
60307;BME280;46155;52.364;6.580;2023-02-12T08:58:40;103687.03;;;6.82;100.00
60307;BME280;46155;52.364;6.580;2023-02-12T09:01:12;103689.28;;;6.86;100.00
60307;BME280;46155;52.364;6.580;2023-02-12T09:03:37;103694.16;;;6.91;100.00
60307;BME280;46155;52.364;6.580;2023-02-12T09:06:04;103688.91;;;6.91;100.00
60307;BME280;46155;52.364;6.580;2023-02-12T09:08:30;103696.56;;;6.96;100.00
60307;BME280;46155;52.364;6.580;2023-02-12T09:10:55;103694.13;;;6.98;100.00
60307;BME280;46155;52.364;6.580;2023-02-12T09:13:20;103701.22;;;6.99;100.00
60307;BME280;46155;52.364;6.580;2023-02-12T09:15:46;103688.38;;;7.00;100.00
60307;BME280;46155;52.364;6.580;2023-02-12T09:18:12;103694.13;;;7.05;100.00
60307;BME280;46155;52.364;6.580;2023-02-12T09:20:41;103696.75;;;7.05;100.00
60307;BME280;46155;52.364;6.580;2023-02-12T09:23:08;103699.00;;;7.09;100.00
60307;BME280;46155;52.364;6.580;2023-02-12T09:25:34;103702.69;;;7.18;100.00
60307;BME280;46155;52.364;6.580;2023-02-12T09:28:00;103695.81;;;7.19;100.00
60307;BME280;46155;52.364;6.580;2023-02-12T09:30:26;103693.38;;;7.20;100.00
60307;BME280;46155;52.364;6.580;2023-02-12T09:32:51;103712.59;;;7.28;100.00
60307;BME280;46155;52.364;6.580;2023-02-12T09:35:17;103695.97;;;7.28;100.00
60307;BME280;46155;52.364;6.580;2023-02-12T09:37:43;103703.44;;;7.32;100.00
60307;BME280;46155;52.364;6.580;2023-02-12T09:40:15;103700.06;;;7.33;100.00
60307;BME280;46155;52.364;6.580;2023-02-12T09:42:59;103701.00;;;7.33;100.00
60307;BME280;46155;52.364;6.580;2023-02-12T09:45:32;103692.81;;;7.37;100.00
60307;BME280;46155;52.364;6.580;2023-02-12T09:50:54;103697.84;;;7.43;100.00
60307;BME280;46155;52.364;6.580;2023-02-12T09:53:22;103696.31;;;7.45;100.00
60307;BME280;46155;52.364;6.580;2023-02-12T09:55:49;103696.84;;;7.50;100.00
60307;BME280;46155;52.364;6.580;2023-02-12T09:58:37;103699.28;;;7.55;100.00
60307;BME280;46155;52.364;6.580;2023-02-12T10:01:17;103700.75;;;7.61;100.00
60307;BME280;46155;52.364;6.580;2023-02-12T10:03:44;103700.75;;;7.68;100.00
60307;BME280;46155;52.364;6.580;2023-02-12T10:06:14;103697.03;;;7.66;100.00
60307;BME280;46155;52.364;6.580;2023-02-12T10:14:28;103695.84;;;7.85;100.00
60307;BME280;46155;52.364;6.580;2023-02-12T10:20:03;103694.69;;;7.90;100.00
60307;BME280;46155;52.364;6.580;2023-02-12T10:22:59;103706.09;;;7.91;100.00
60307;BME280;46155;52.364;6.580;2023-02-12T10:25:59;103700.28;;;7.93;100.00
60307;BME280;46155;52.364;6.580;2023-02-12T10:28:32;103700.63;;;7.97;100.00
60307;BME280;46155;52.364;6.580;2023-02-12T10:31:01;103700.25;;;8.01;100.00
60307;BME280;46155;52.364;6.580;2023-02-12T10:33:32;103707.88;;;8.06;100.00
60307;BME280;46155;52.364;6.580;2023-02-12T10:38:38;103701.69;;;8.13;100.00
60307;BME280;46155;52.364;6.580;2023-02-12T10:41:06;103699.44;;;8.16;100.00
60307;BME280;46155;52.364;6.580;2023-02-12T10:43:33;103698.84;;;8.19;100.00
60307;BME280;46155;52.364;6.580;2023-02-12T10:45:58;103699.78;;;8.19;100.00
60307;BME280;46155;52.364;6.580;2023-02-12T10:48:30;103700.16;;;8.22;100.00
60307;BME280;46155;52.364;6.580;2023-02-12T10:53:36;103705.94;;;8.27;100.00
60307;BME280;46155;52.364;6.580;2023-02-12T10:58:54;103709.41;;;8.35;100.00
60307;BME280;46155;52.364;6.580;2023-02-12T11:01:32;103707.94;;;8.37;100.00
60307;BME280;46155;52.364;6.580;2023-02-12T11:04:00;103711.81;;;8.40;100.00
60307;BME280;46155;52.364;6.580;2023-02-12T11:06:58;103700.78;;;8.43;100.00
60307;BME280;46155;52.364;6.580;2023-02-12T11:09:34;103710.31;;;8.50;100.00
60307;BME280;46155;52.364;6.580;2023-02-12T11:12:01;103698.50;;;8.53;100.00
60307;BME280;46155;52.364;6.580;2023-02-12T11:14:27;103701.50;;;8.56;100.00
60307;BME280;46155;52.364;6.580;2023-02-12T11:16:55;103699.03;;;8.58;100.00
60307;BME280;46155;52.364;6.580;2023-02-12T11:19:27;103701.44;;;8.64;100.00
60307;BME280;46155;52.364;6.580;2023-02-12T11:22:05;103698.81;;;8.64;100.00
60307;BME280;46155;52.364;6.580;2023-02-12T11:24:33;103697.47;;;8.67;100.00
60307;BME280;46155;52.364;6.580;2023-02-12T11:27:25;103695.97;;;8.69;100.00
60307;BME280;46155;52.364;6.580;2023-02-12T11:32:37;103692.72;;;8.79;100.00
60307;BME280;46155;52.364;6.580;2023-02-12T11:37:39;103692.66;;;8.86;100.00
60307;BME280;46155;52.364;6.580;2023-02-12T11:40:05;103688.19;;;8.85;100.00
60307;BME280;46155;52.364;6.580;2023-02-12T11:42:34;103684.81;;;8.86;100.00
60307;BME280;46155;52.364;6.580;2023-02-12T11:45:02;103678.03;;;8.88;100.00
60307;BME280;46155;52.364;6.580;2023-02-12T11:47:31;103676.88;;;8.93;100.00
60307;BME280;46155;52.364;6.580;2023-02-12T11:50:19;103681.72;;;8.98;100.00
60307;BME280;46155;52.364;6.580;2023-02-12T11:52:49;103682.06;;;9.01;100.00
60307;BME280;46155;52.364;6.580;2023-02-12T11:55:21;103679.44;;;9.01;100.00
60307;BME280;46155;52.364;6.580;2023-02-12T11:57:50;103673.44;;;9.02;100.00
60307;BME280;46155;52.364;6.580;2023-02-12T12:02:51;103671.16;;;9.05;100.00
60307;BME280;46155;52.364;6.580;2023-02-12T12:05:20;103665.94;;;9.05;100.00
60307;BME280;46155;52.364;6.580;2023-02-12T12:07:55;103669.63;;;9.07;100.00
60307;BME280;46155;52.364;6.580;2023-02-12T12:10:46;103665.53;;;9.09;100.00
60307;BME280;46155;52.364;6.580;2023-02-12T12:13:17;103660.44;;;9.10;100.00
60307;BME280;46155;52.364;6.580;2023-02-12T12:15:51;103661.94;;;9.08;100.00
60307;BME280;46155;52.364;6.580;2023-02-12T12:26:39;103654.25;;;9.10;100.00
60307;BME280;46155;52.364;6.580;2023-02-12T12:29:25;103649.56;;;9.15;100.00
60307;BME280;46155;52.364;6.580;2023-02-12T12:31:58;103642.59;;;9.15;100.00
60307;BME280;46155;52.364;6.580;2023-02-12T12:34:26;103643.78;;;9.10;100.00
60307;BME280;46155;52.364;6.580;2023-02-12T12:45:32;103638.91;;;9.13;100.00
60307;BME280;46155;52.364;6.580;2023-02-12T12:54:29;103632.03;;;9.06;100.00
60307;BME280;46155;52.364;6.580;2023-02-12T13:00:01;103611.56;;;9.11;100.00
60307;BME280;46155;52.364;6.580;2023-02-12T13:02:59;103613.09;;;9.09;100.00
60307;BME280;46155;52.364;6.580;2023-02-12T13:11:36;103610.22;;;9.15;100.00
60307;BME280;46155;52.364;6.580;2023-02-12T13:14:16;103602.88;;;9.19;100.00
60307;BME280;46155;52.364;6.580;2023-02-12T13:17:03;103608.78;;;9.25;100.00
60307;BME280;46155;52.364;6.580;2023-02-12T13:19:43;103603.13;;;9.29;100.00
60307;BME280;46155;52.364;6.580;2023-02-12T13:22:18;103603.81;;;9.36;100.00
60307;BME280;46155;52.364;6.580;2023-02-12T13:25:16;103598.66;;;9.44;100.00
60307;BME280;46155;52.364;6.580;2023-02-12T13:27:42;103593.69;;;9.39;100.00
60307;BME280;46155;52.364;6.580;2023-02-12T13:30:26;103595.50;;;9.40;100.00
60307;BME280;46155;52.364;6.580;2023-02-12T13:33:40;103596.63;;;9.42;100.00
60307;BME280;46155;52.364;6.580;2023-02-12T13:35:43;103599.84;;;9.39;100.00
60307;BME280;46155;52.364;6.580;2023-02-12T13:38:16;103597.97;;;9.38;100.00
60307;BME280;46155;52.364;6.580;2023-02-12T13:40:43;103599.00;;;9.32;100.00
60307;BME280;46155;52.364;6.580;2023-02-12T13:58:58;103601.84;;;9.10;100.00
60307;BME280;46155;52.364;6.580;2023-02-12T14:09:28;103585.03;;;9.08;100.00
60307;BME280;46155;52.364;6.580;2023-02-12T14:11:56;103584.53;;;9.03;100.00
60307;BME280;46155;52.364;6.580;2023-02-12T14:14:32;103589.19;;;9.06;100.00
60307;BME280;46155;52.364;6.580;2023-02-12T14:27:41;103586.34;;;9.04;100.00
60307;BME280;46155;52.364;6.580;2023-02-12T14:35:33;103583.22;;;9.00;100.00
60307;BME280;46155;52.364;6.580;2023-02-12T14:38:02;103579.22;;;8.87;100.00
60307;BME280;46155;52.364;6.580;2023-02-12T14:43:01;103581.25;;;8.74;100.00
60307;BME280;46155;52.364;6.580;2023-02-12T14:45:38;103582.81;;;8.65;100.00
60307;BME280;46155;52.364;6.580;2023-02-12T14:48:04;103580.03;;;8.63;100.00
60307;BME280;46155;52.364;6.580;2023-02-12T14:50:37;103579.78;;;8.69;100.00
60307;BME280;46155;52.364;6.580;2023-02-12T14:53:07;103579.44;;;8.66;100.00
60307;BME280;46155;52.364;6.580;2023-02-12T14:55:39;103586.91;;;8.70;100.00
60307;BME280;46155;52.364;6.580;2023-02-12T14:58:16;103584.78;;;8.74;100.00
60307;BME280;46155;52.364;6.580;2023-02-12T15:00:45;103584.53;;;8.80;100.00
60307;BME280;46155;52.364;6.580;2023-02-12T15:05:40;103577.88;;;8.75;100.00
60307;BME280;46155;52.364;6.580;2023-02-12T15:08:25;103581.59;;;8.77;100.00
60307;BME280;46155;52.364;6.580;2023-02-12T15:10:56;103571.03;;;8.84;100.00
60307;BME280;46155;52.364;6.580;2023-02-12T15:13:42;103567.91;;;8.79;100.00
60307;BME280;46155;52.364;6.580;2023-02-12T15:16:22;103574.22;;;8.82;100.00
60307;BME280;46155;52.364;6.580;2023-02-12T15:18:57;103566.56;;;8.83;100.00
60307;BME280;46155;52.364;6.580;2023-02-12T15:21:29;103566.22;;;8.80;100.00
60307;BME280;46155;52.364;6.580;2023-02-12T15:26:28;103567.25;;;8.89;100.00
60307;BME280;46155;52.364;6.580;2023-02-12T15:28:55;103570.53;;;8.95;100.00
60307;BME280;46155;52.364;6.580;2023-02-12T15:31:24;103569.38;;;9.01;100.00
60307;BME280;46155;52.364;6.580;2023-02-12T15:33:51;103562.97;;;9.06;100.00
60307;BME280;46155;52.364;6.580;2023-02-12T15:36:21;103562.97;;;9.06;100.00
60307;BME280;46155;52.364;6.580;2023-02-12T15:38:51;103559.97;;;9.03;100.00
60307;BME280;46155;52.364;6.580;2023-02-12T15:43:59;103558.72;;;9.15;100.00
60307;BME280;46155;52.364;6.580;2023-02-12T15:46:25;103558.16;;;9.18;100.00
60307;BME280;46155;52.364;6.580;2023-02-12T15:48:50;103551.19;;;9.18;100.00
60307;BME280;46155;52.364;6.580;2023-02-12T15:51:36;103548.59;;;9.18;100.00
60307;BME280;46155;52.364;6.580;2023-02-12T15:54:06;103551.19;;;9.18;100.00
60307;BME280;46155;52.364;6.580;2023-02-12T15:56:32;103553.06;;;9.19;100.00
60307;BME280;46155;52.364;6.580;2023-02-12T15:59:01;103557.56;;;9.20;100.00
60307;BME280;46155;52.364;6.580;2023-02-12T16:01:29;103553.81;;;9.18;100.00
60307;BME280;46155;52.364;6.580;2023-02-12T16:03:57;103557.66;;;9.13;100.00
60307;BME280;46155;52.364;6.580;2023-02-12T16:06:25;103556.78;;;9.05;100.00
60307;BME280;46155;52.364;6.580;2023-02-12T16:09:01;103552.91;;;9.02;100.00
60307;BME280;46155;52.364;6.580;2023-02-12T16:11:28;103549.91;;;8.99;100.00
60307;BME280;46155;52.364;6.580;2023-02-12T16:16:29;103556.34;;;8.93;100.00
60307;BME280;46155;52.364;6.580;2023-02-12T16:21:40;103557.53;;;8.88;100.00
60307;BME280;46155;52.364;6.580;2023-02-12T16:24:20;103554.91;;;8.88;100.00
60307;BME280;46155;52.364;6.580;2023-02-12T16:26:46;103554.50;;;8.92;100.00
60307;BME280;46155;52.364;6.580;2023-02-12T16:29:15;103548.00;;;8.89;100.00
60307;BME280;46155;52.364;6.580;2023-02-12T16:31:55;103546.63;;;8.76;100.00
60307;BME280;46155;52.364;6.580;2023-02-12T16:34:32;103549.66;;;8.72;100.00
60307;BME280;46155;52.364;6.580;2023-02-12T16:36:58;103557.00;;;8.68;100.00
60307;BME280;46155;52.364;6.580;2023-02-12T16:42:17;103546.75;;;8.62;100.00
60307;BME280;46155;52.364;6.580;2023-02-12T16:44:44;103538.97;;;8.55;100.00
60307;BME280;46155;52.364;6.580;2023-02-12T16:47:18;103548.84;;;8.57;100.00
60307;BME280;46155;52.364;6.580;2023-02-12T16:49:53;103558.22;;;8.55;100.00
60307;BME280;46155;52.364;6.580;2023-02-12T16:52:37;103558.28;;;8.48;100.00
60307;BME280;46155;52.364;6.580;2023-02-12T16:55:04;103547.84;;;8.41;100.00
60307;BME280;46155;52.364;6.580;2023-02-12T16:57:31;103558.22;;;8.32;100.00
60307;BME280;46155;52.364;6.580;2023-02-12T16:59:57;103561.34;;;8.37;100.00
60307;BME280;46155;52.364;6.580;2023-02-12T17:02:22;103566.22;;;8.34;100.00
60307;BME280;46155;52.364;6.580;2023-02-12T17:04:47;103567.31;;;8.36;100.00
60307;BME280;46155;52.364;6.580;2023-02-12T17:07:21;103581.72;;;8.39;100.00
60307;BME280;46155;52.364;6.580;2023-02-12T17:09:47;103579.66;;;8.37;100.00
60307;BME280;46155;52.364;6.580;2023-02-12T17:12:13;103565.91;;;8.23;100.00
60307;BME280;46155;52.364;6.580;2023-02-12T17:14:38;103575.63;;;8.24;100.00
60307;BME280;46155;52.364;6.580;2023-02-12T17:17:04;103579.72;;;8.30;100.00
60307;BME280;46155;52.364;6.580;2023-02-12T17:19:29;103570.22;;;8.23;100.00
60307;BME280;46155;52.364;6.580;2023-02-12T17:21:55;103574.88;;;8.25;100.00
60307;BME280;46155;52.364;6.580;2023-02-12T17:24:25;103584.94;;;8.30;100.00
60307;BME280;46155;52.364;6.580;2023-02-12T17:26:52;103589.84;;;8.26;100.00
60307;BME280;46155;52.364;6.580;2023-02-12T17:29:19;103594.34;;;8.20;100.00
60307;BME280;46155;52.364;6.580;2023-02-12T17:31:45;103591.38;;;8.17;100.00
60307;BME280;46155;52.364;6.580;2023-02-12T17:34:12;103595.09;;;8.19;100.00
60307;BME280;46155;52.364;6.580;2023-02-12T17:36:38;103600.34;;;8.19;100.00
60307;BME280;46155;52.364;6.580;2023-02-12T17:39:06;103607.09;;;8.17;100.00
60307;BME280;46155;52.364;6.580;2023-02-12T17:41:32;103602.78;;;8.18;100.00
60307;BME280;46155;52.364;6.580;2023-02-12T17:43:57;103594.41;;;8.13;100.00
60307;BME280;46155;52.364;6.580;2023-02-12T17:46:27;103593.72;;;8.07;100.00
60307;BME280;46155;52.364;6.580;2023-02-12T17:48:52;103591.09;;;8.07;100.00
60307;BME280;46155;52.364;6.580;2023-02-12T17:51:18;103603.41;;;8.08;100.00
60307;BME280;46155;52.364;6.580;2023-02-12T17:53:43;103593.34;;;8.04;100.00
60307;BME280;46155;52.364;6.580;2023-02-12T17:56:14;103603.22;;;8.06;100.00
60307;BME280;46155;52.364;6.580;2023-02-12T17:58:41;103606.78;;;8.07;100.00
60307;BME280;46155;52.364;6.580;2023-02-12T18:01:09;103611.28;;;8.01;100.00
60307;BME280;46155;52.364;6.580;2023-02-12T18:03:35;103614.72;;;7.92;100.00
60307;BME280;46155;52.364;6.580;2023-02-12T18:06:01;103607.31;;;7.81;100.00
60307;BME280;46155;52.364;6.580;2023-02-12T18:08:27;103612.16;;;7.78;100.00
60307;BME280;46155;52.364;6.580;2023-02-12T18:10:53;103620.75;;;7.84;100.00
60307;BME280;46155;52.364;6.580;2023-02-12T18:13:18;103614.34;;;7.89;100.00
60307;BME280;46155;52.364;6.580;2023-02-12T18:15:44;103604.66;;;7.88;100.00
60307;BME280;46155;52.364;6.580;2023-02-12T18:18:09;103623.66;;;7.95;100.00
60307;BME280;46155;52.364;6.580;2023-02-12T18:20:35;103612.16;;;7.85;100.00
60307;BME280;46155;52.364;6.580;2023-02-12T18:23:00;103622.22;;;7.82;100.00
60307;BME280;46155;52.364;6.580;2023-02-12T18:25:27;103622.22;;;7.82;100.00
60307;BME280;46155;52.364;6.580;2023-02-12T18:27:52;103626.31;;;7.87;100.00
60307;BME280;46155;52.364;6.580;2023-02-12T18:30:18;103621.44;;;7.90;100.00
60307;BME280;46155;52.364;6.580;2023-02-12T18:32:43;103615.69;;;7.86;100.00
60307;BME280;46155;52.364;6.580;2023-02-12T18:35:09;103609.00;;;7.73;100.00
60307;BME280;46155;52.364;6.580;2023-02-12T18:37:34;103609.19;;;7.75;100.00
60307;BME280;46155;52.364;6.580;2023-02-12T18:40:00;103614.38;;;7.82;100.00
60307;BME280;46155;52.364;6.580;2023-02-12T18:42:25;103621.66;;;7.85;100.00
60307;BME280;46155;52.364;6.580;2023-02-12T18:44:53;103611.19;;;7.85;100.00
60307;BME280;46155;52.364;6.580;2023-02-12T18:47:19;103603.56;;;7.79;100.00
60307;BME280;46155;52.364;6.580;2023-02-12T18:49:45;103614.19;;;7.81;100.00
60307;BME280;46155;52.364;6.580;2023-02-12T18:52:10;103613.16;;;7.71;100.00
60307;BME280;46155;52.364;6.580;2023-02-12T18:54:35;103609.03;;;7.66;100.00
60307;BME280;46155;52.364;6.580;2023-02-12T18:57:01;103607.56;;;7.61;100.00
60307;BME280;46155;52.364;6.580;2023-02-12T18:59:26;103610.38;;;7.55;100.00
60307;BME280;46155;52.364;6.580;2023-02-12T19:01:51;103609.09;;;7.52;100.00
60307;BME280;46155;52.364;6.580;2023-02-12T19:04:19;103610.41;;;7.48;100.00